TimeMST,TemperatureF,Dew PointF,Humidity,Sea Level PressureIn,VisibilityMPH,Wind Direction,Wind SpeedMPH,Gust SpeedMPH,PrecipitationIn,Events,Conditions,WindDirDegrees,DateUTC
12:54 AM,19.9,12.0,71,29.70,10.0,Calm,Calm,-,N/A,,Scattered Clouds,0,2013-02-21 07:54:00
1:54 AM,18.0,10.9,74,29.73,10.0,SE,5.8,-,N/A,,Scattered Clouds,140,2013-02-21 08:54:00
2:54 AM,21.0,12.9,71,29.73,10.0,Calm,Calm,-,N/A,,Overcast,0,2013-02-21 09:54:00
3:54 AM,19.0,12.0,74,29.76,10.0,East,10.4,-,N/A,,Overcast,90,2013-02-21 10:54:00
4:47 AM,19.4,12.2,74,29.70,4.0,ENE,12.7,-,0.00,Snow,Light Snow,70,2013-02-21 11:47:00
4:54 AM,19.0,12.9,77,29.79,3.0,ENE,12.7,-,0.00,Snow,Light Snow,70,2013-02-21 11:54:00
5:10 AM,17.6,12.2,79,29.71,3.0,ENE,10.4,-,0.00,Snow,Light Snow,70,2013-02-21 12:10:00
5:18 AM,17.6,12.2,79,29.71,3.0,ENE,9.2,-,0.00,Snow,Light Snow,70,2013-02-21 12:18:00
5:54 AM,17.1,12.0,81,29.84,6.0,ENE,10.4,-,0.00,,Haze,70,2013-02-21 12:54:00
6:13 AM,17.6,12.2,79,29.73,6.0,ENE,10.4,-,0.00,Snow,Light Snow,70,2013-02-21 13:13:00
6:52 AM,17.6,14.0,86,29.74,3.0,ENE,12.7,-,0.00,Snow,Light Snow,60,2013-02-21 13:52:00
6:54 AM,18.0,14.0,84,29.86,2.5,ENE,11.5,-,0.00,Snow,Light Snow,60,2013-02-21 13:54:00
7:06 AM,17.6,14.0,86,29.74,1.8,ENE,12.7,-,0.00,Snow,Light Snow,70,2013-02-21 14:06:00
7:49 AM,17.6,14.0,86,29.76,1.2,ENE,9.2,-,0.00,Snow,Light Snow,70,2013-02-21 14:49:00
7:54 AM,18.0,14.0,84,29.89,1.0,ENE,10.4,-,0.00,Snow,Light Snow,70,2013-02-21 14:54:00
8:28 AM,19.4,15.8,86,29.78,1.5,ENE,10.4,-,0.00,Snow,Light Snow,70,2013-02-21 15:28:00
8:47 AM,19.4,15.8,86,29.79,2.0,East,9.2,-,0.00,Snow,Light Snow,80,2013-02-21 15:47:00
8:54 AM,19.9,15.1,81,29.91,2.5,ENE,8.1,-,0.00,Snow,Light Snow,60,2013-02-21 15:54:00
9:09 AM,19.4,15.8,86,29.79,1.8,East,8.1,-,0.00,Snow,Light Snow,90,2013-02-21 16:09:00
9:54 AM,21.9,17.1,82,29.93,1.2,East,6.9,-,0.00,Snow,Light Snow,80,2013-02-21 16:54:00
10:36 AM,23.0,15.8,74,29.80,2.5,East,6.9,-,0.00,Snow,Light Snow,100,2013-02-21 17:36:00
10:54 AM,24.1,17.1,75,29.92,1.5,East,4.6,-,0.00,Snow,Light Snow,80,2013-02-21 17:54:00
11:04 AM,24.8,17.6,74,29.80,1.5,ESE,4.6,-,0.00,Snow,Light Snow,120,2013-02-21 18:04:00
11:21 AM,23.0,15.8,74,29.80,1.8,East,3.5,-,0.00,Snow,Light Snow,100,2013-02-21 18:21:00
11:43 AM,24.8,17.6,74,29.80,1.0,Variable,3.5,-,0.00,Snow,Light Snow,0,2013-02-21 18:43:00
11:51 AM,24.8,17.6,74,29.80,1.0,Calm,Calm,-,0.00,Snow,Light Snow,0,2013-02-21 18:51:00
11:54 AM,24.1,17.1,75,29.92,1.0,Calm,Calm,-,0.00,Snow,Light Snow,0,2013-02-21 18:54:00
12:15 PM,24.8,17.6,74,29.80,2.0,Calm,Calm,-,0.00,,Haze,0,2013-02-21 19:15:00
12:31 PM,24.8,15.8,69,29.80,4.0,Calm,Calm,-,0.00,,Haze,0,2013-02-21 19:31:00
12:52 PM,24.8,17.6,74,29.79,2.5,Calm,Calm,-,0.00,Snow,Light Snow,0,2013-02-21 19:52:00
12:54 PM,24.1,17.1,75,29.92,3.0,Calm,Calm,-,0.00,Snow,Light Snow,0,2013-02-21 19:54:00
1:38 PM,24.8,19.4,80,29.78,2.0,WSW,4.6,-,N/A,,Haze,250,2013-02-21 20:38:00
1:54 PM,25.0,19.0,78,29.91,2.0,West,4.6,-,0.00,Snow,Light Snow,270,2013-02-21 20:54:00
2:03 PM,26.6,17.6,69,29.78,9.0,West,6.9,-,0.00,,Overcast,260,2013-02-21 21:03:00
2:54 PM,26.1,19.0,75,29.89,3.0,WSW,8.1,-,0.00,Snow,Light Snow,250,2013-02-21 21:54:00
3:54 PM,26.1,19.0,75,29.91,2.5,West,6.9,-,0.00,Snow,Light Snow,260,2013-02-21 22:54:00
4:14 PM,26.6,19.4,74,29.79,3.0,West,6.9,-,0.00,Snow,Light Snow,260,2013-02-21 23:14:00
4:22 PM,26.6,19.4,74,29.79,2.0,West,5.8,-,0.00,Snow,Light Snow,260,2013-02-21 23:22:00
4:38 PM,26.6,19.4,74,29.79,1.0,West,4.6,-,0.00,Snow,Light Snow,280,2013-02-21 23:38:00
4:54 PM,26.1,19.9,78,29.91,1.8,West,5.8,-,0.00,Snow,Light Snow,270,2013-02-21 23:54:00
5:24 PM,26.6,19.4,74,29.79,3.0,WSW,9.2,-,0.00,Snow,Light Snow,250,2013-02-22 00:24:00
5:54 PM,25.0,19.9,81,29.93,10.0,West,8.1,-,0.00,,Overcast,280,2013-02-22 00:54:00
6:49 PM,24.8,15.8,69,29.81,10.0,WSW,15.0,-,0.00,,Overcast,250,2013-02-22 01:49:00
6:54 PM,23.0,16.0,74,29.94,10.0,WSW,13.8,-,0.00,,Overcast,250,2013-02-22 01:54:00
7:10 PM,23.0,15.8,74,29.81,10.0,WSW,12.7,-,N/A,,Scattered Clouds,240,2013-02-22 02:10:00
7:54 PM,21.0,14.0,74,29.97,10.0,WSW,16.1,-,N/A,,Clear,240,2013-02-22 02:54:00
8:54 PM,21.0,14.0,74,29.97,10.0,WSW,15.0,-,N/A,,Overcast,240,2013-02-22 03:54:00
9:30 PM,19.4,14.0,80,29.84,2.5,WSW,17.3,-,0.00,Snow,Light Snow,240,2013-02-22 04:30:00
9:38 PM,19.4,15.8,86,29.84,1.2,WSW,17.3,-,0.00,Snow,Light Snow,240,2013-02-22 04:38:00
9:47 PM,19.4,15.8,86,29.84,3.0,WSW,18.4,-,0.00,Snow,Light Snow,240,2013-02-22 04:47:00
9:54 PM,19.9,15.1,81,29.99,8.0,WSW,19.6,-,0.00,Snow,Light Snow,250,2013-02-22 04:54:00
10:09 PM,19.4,14.0,80,29.85,9.0,WSW,18.4,-,0.00,Snow,Light Snow,250,2013-02-22 05:09:00
10:26 PM,19.4,14.0,80,29.85,10.0,WSW,15.0,-,0.00,,Overcast,250,2013-02-22 05:26:00
10:54 PM,19.9,12.9,74,29.99,10.0,West,17.3,-,0.00,,Overcast,260,2013-02-22 05:54:00
11:13 PM,19.4,14.0,80,29.87,1.8,West,16.1,-,0.00,Snow,Light Snow,260,2013-02-22 06:13:00
11:54 PM,19.0,12.9,77,30.01,10.0,WSW,11.5,-,0.00,,Overcast,240,2013-02-22 06:54:00